Time;durP1;ratioP1;P1;durP2;ratioP2;P2;SDS_P1;SDS_P2;PMS_P1;PMS_P2;Temp;Humidity;BMP_temperature;BMP_pressure;BME280_temperature;BME280_humidity;BME280_pressure;Samples;Min_cycle;Max_cycle;Signal;HPM_P1;HPM_P2
2023/01/29 00:01:30;;;;;;;15.07;8.63;;;;;;;;;;5060700;28;20061;-70
2023/01/29 00:03:57;;;;;;;13.98;9.23;;;;;;;;;;5060656;28;20040;-69
2023/01/29 00:06:23;;;;;;;15.68;9.18;;;;;;;;;;5060426;28;20051;-69
2023/01/29 00:08:49;;;;;;;14.32;9.75;;;;;;;;;;5062666;28;20049;-70
2023/01/29 00:11:16;;;;;;;13.27;9.20;;;;;;;;;;5057481;28;20125;-71
2023/01/29 00:13:42;;;;;;;14.65;10.25;;;4.60;99.90;;;;;;5061471;28;20140;-69
2023/01/29 00:16:08;;;;;;;16.60;10.02;;;;;;;;;;5056616;28;20048;-70
2023/01/29 00:18:41;;;;;;;15.65;9.32;;;;;;;;;;5063609;28;20086;-70
2023/01/29 00:21:14;;;;;;;21.10;10.93;;;;;;;;;;5066040;28;20076;-70
2023/01/29 00:23:40;;;;;;;;;;;;;;;;;;5065502;28;20036;-70
2023/01/29 00:26:06;;;;;;;15.43;8.57;;;;;;;;;;5065378;28;19971;-70
2023/01/29 00:28:32;;;;;;;14.73;9.18;;;;;;;;;;5055965;28;20041;-70
2023/01/29 00:30:58;;;;;;;14.32;8.63;;;;;;;;;;5055568;28;20053;-70
2023/01/29 00:33:25;;;;;;;16.88;10.05;;;;;;;;;;5059851;28;20048;-70
2023/01/29 00:35:51;;;;;;;13.50;8.82;;;;;;;;;;5064927;28;20040;-70
2023/01/29 00:38:16;;;;;;;16.85;9.13;;;4.40;99.90;;;;;;5065942;28;20627;-70
2023/01/29 00:46:11;;;;;;;12.95;7.30;;;4.50;99.90;;;;;;5057107;28;20037;-70
2023/01/29 00:48:36;;;;;;;13.48;8.48;;;4.50;99.90;;;;;;5063619;28;20047;-70
2023/01/29 00:51:03;;;;;;;11.25;7.70;;;4.50;99.90;;;;;;5056975;28;20410;-70
2023/01/29 00:53:29;;;;;;;10.32;7.10;;;4.50;99.90;;;;;;5053436;28;20700;-70
2023/01/29 00:55:55;;;;;;;10.65;7.05;;;4.50;99.90;;;;;;5066200;28;20055;-70
2023/01/29 00:58:27;;;;;;;10.43;7.38;;;4.50;99.90;;;;;;5061521;28;20033;-70
2023/01/29 01:00:54;;;;;;;12.20;7.63;;;4.50;99.90;;;;;;5060282;28;20071;-70
2023/01/29 01:03:20;;;;;;;9.07;6.40;;;4.50;99.90;;;;;;5055918;28;20037;-70
2023/01/29 01:05:46;;;;;;;11.20;7.18;;;4.50;99.90;;;;;;5069068;28;20101;-69
2023/01/29 01:11:02;;;;;;;8.95;5.80;;;4.50;99.90;;;;;;5074483;28;20040;-70
2023/01/29 01:13:30;;;;;;;11.90;6.47;;;4.50;99.90;;;;;;5068200;28;20080;-70
2023/01/29 01:15:55;;;;;;;10.57;7.30;;;4.50;99.90;;;;;;5060914;28;20029;-70
2023/01/29 01:18:21;;;;;;;10.13;6.78;;;4.50;99.90;;;;;;5060756;28;20036;-70
2023/01/29 01:20:50;;;;;;;10.73;7.07;;;;;;;;;;5064715;28;20029;-70
2023/01/29 01:23:19;;;;;;;9.35;6.18;;;;;;;;;;5068172;28;20060;-70
2023/01/29 01:25:45;;;;;;;10.77;7.47;;;;;;;;;;5066846;28;20047;-70
2023/01/29 01:28:12;;;;;;;11.15;7.55;;;;;;;;;;5066846;28;20178;-70
2023/01/29 01:30:38;;;;;;;10.30;7.80;;;;;;;;;;5068217;28;20032;-70
2023/01/29 01:33:04;;;;;;;12.68;7.82;;;;;;;;;;5064564;28;20055;-70
2023/01/29 01:35:30;;;;;;;12.75;8.10;;;;;;;;;;5063988;28;20124;-70
2023/01/29 01:37:56;;;;;;;12.43;7.20;;;;;;;;;;5069686;28;20486;-70
2023/01/29 01:40:24;;;;;;;12.27;7.53;;;;;;;;;;5069130;28;20044;-70
2023/01/29 01:42:54;;;;;;;13.15;8.02;;;;;;;;;;5061752;28;20044;-70
2023/01/29 01:45:26;;;;;;;13.90;9.05;;;;;;;;;;5061025;28;20415;-70
2023/01/29 01:47:58;;;;;;;15.48;9.60;;;;;;;;;;5065237;28;20037;-70
2023/01/29 01:50:45;;;;;;;16.60;9.38;;;;;;;;;;5062990;28;20592;-70
2023/01/29 01:53:13;;;;;;;17.48;10.25;;;;;;;;;;5064775;28;20040;-70
2023/01/29 01:55:42;;;;;;;16.08;9.82;;;;;;;;;;5064017;28;20049;-70
2023/01/29 01:58:09;;;;;;;19.30;10.77;;;;;;;;;;5065834;28;20076;-70
2023/01/29 02:00:36;;;;;;;15.18;10.07;;;;;;;;;;5066012;28;20040;-70
2023/01/29 02:11:29;;;;;;;19.50;11.98;;;;;;;;;;5060598;28;20136;-70
2023/01/29 02:13:56;;;;;;;13.30;9.23;;;;;;;;;;5063235;28;20044;-70
2023/01/29 02:16:23;;;;;;;14.65;9.90;;;;;;;;;;5067583;28;20048;-70
2023/01/29 02:18:49;;;;;;;14.30;10.43;;;;;;;;;;5062898;28;20036;-70
2023/01/29 02:21:36;;;;;;;17.42;11.30;;;;;;;;;;5064624;28;20113;-69
2023/01/29 02:24:21;;;;;;;14.68;10.13;;;;;;;;;;5044955;28;20044;-70
2023/01/29 02:26:59;;;;;;;16.38;11.75;;;;;;;;;;5067286;28;20064;-70
2023/01/29 02:29:36;;;;;;;14.80;11.10;;;;;;;;;;5062148;28;20068;-70
2023/01/29 02:32:02;;;;;;;18.60;11.75;;;;;;;;;;5062574;28;20060;-71
2023/01/29 02:37:46;;;;;;;17.23;11.02;;;;;;;;;;5059414;28;20045;-70
2023/01/29 02:40:17;;;;;;;17.25;11.15;;;;;;;;;;5059720;28;20038;-68
2023/01/29 02:42:51;;;;;;;19.52;11.93;;;;;;;;;;5056186;28;20072;-70
2023/01/29 02:45:32;;;;;;;15.77;11.45;;;;;;;;;;5062568;28;20486;-70
2023/01/29 02:47:59;;;;;;;15.15;10.38;;;;;;;;;;5059115;28;20059;-70
2023/01/29 02:50:30;;;;;;;23.75;12.85;;;;;;;;;;5059695;28;20043;-70
2023/01/29 02:52:59;;;;;;;18.67;12.32;;;;;;;;;;5059834;28;20041;-69
2023/01/29 02:55:30;;;;;;;21.65;12.48;;;;;;;;;;5063736;28;20032;-70
2023/01/29 02:58:00;;;;;;;23.55;12.55;;;;;;;;;;5056020;28;20074;-70
2023/01/29 03:00:30;;;;;;;16.88;11.55;;;;;;;;;;5063288;28;20032;-70
2023/01/29 03:02:59;;;;;;;15.98;11.63;;;;;;;;;;5066922;28;20536;-70
2023/01/29 03:05:29;;;;;;;17.73;12.85;;;;;;;;;;5067961;28;20040;-70
2023/01/29 03:07:58;;;;;;;17.50;11.18;;;;;;;;;;5066080;28;20075;-70
2023/01/29 03:10:29;;;;;;;18.15;11.93;;;;;;;;;;5059262;28;20037;-69
2023/01/29 03:13:22;;;;;;;17.58;12.10;;;;;;;;;;5057942;28;20182;-70
2023/01/29 03:16:00;;;;;;;21.27;12.00;;;;;;;;;;5062188;28;20052;-70
2023/01/29 03:18:29;;;;;;;18.60;13.27;;;;;;;;;;5056905;28;20530;-70
2023/01/29 03:20:58;;;;;;;20.65;13.68;;;;;;;;;;5056326;28;20059;-70
2023/01/29 03:34:37;;;;;;;20.35;13.65;;;;;;;;;;5058460;28;20048;-70
2023/01/29 03:37:09;;;;;;;21.90;12.95;;;;;;;;;;5057998;28;20036;-70
2023/01/29 03:39:36;;;;;;;20.65;14.45;;;;;;;;;;5060172;28;20050;-70
2023/01/29 03:42:04;;;;;;;26.70;14.15;;;;;;;;;;5055957;28;20041;-70
2023/01/29 03:44:34;;;;;;;21.23;13.60;;;;;;;;;;5056728;28;20106;-70
2023/01/29 03:47:19;;;;;;;21.98;15.25;;;;;;;;;;5062826;28;20036;-70
2023/01/29 03:49:51;;;;;;;20.58;14.80;;;;;;;;;;5061806;28;20032;-70
2023/01/29 03:52:20;;;;;;;22.98;15.70;;;;;;;;;;5058399;28;20049;-70
2023/01/29 03:55:05;;;;;;;22.88;15.35;;;;;;;;;;5056494;28;20106;-70
2023/01/29 03:57:45;;;;;;;25.30;16.23;;;;;;;;;;5063839;28;20076;-71
2023/01/29 04:00:21;;;;;;;28.90;17.05;;;;;;;;;;5062225;28;20402;-70
2023/01/29 04:02:47;;;;;;;24.42;15.38;;;;;;;;;;5059598;28;20183;-70
2023/01/29 04:05:16;;;;;;;28.30;16.15;;;;;;;;;;5058020;28;20089;-70
2023/01/29 04:07:44;;;;;;;26.77;16.48;;;;;;;;;;5066497;28;20338;-70
2023/01/29 04:10:17;;;;;;;23.30;14.88;;;;;;;;;;5058872;28;20041;-70
2023/01/29 04:12:49;;;;;;;24.98;14.30;;;;;;;;;;5039829;28;20047;-70
2023/01/29 04:15:16;;;;;;;28.67;15.50;;;;;;;;;;5065539;28;20047;-70
2023/01/29 04:17:49;;;;;;;21.95;14.80;;;;;;;;;;5065479;28;20041;-70
2023/01/29 04:20:16;;;;;;;20.80;14.55;;;;;;;;;;5066135;28;20032;-70
2023/01/29 04:22:45;;;;;;;21.75;14.80;;;;;;;;;;5066139;28;20398;-70
2023/01/29 04:25:15;;;;;;;23.70;15.75;;;;;;;;;;5062425;28;20122;-70
2023/01/29 04:27:41;;;;;;;22.85;14.02;;;;;;;;;;5060271;28;20044;-70
2023/01/29 04:30:10;;;;;;;21.42;14.40;;;;;;;;;;5067074;28;20040;-70
2023/01/29 04:32:37;;;;;;;22.58;14.50;;;;;;;;;;5066958;28;20075;-70
2023/01/29 04:35:03;;;;;;;23.15;14.95;;;;;;;;;;5064755;28;20055;-70
2023/01/29 04:37:36;;;;;;;18.55;13.25;;;;;;;;;;5063912;28;20552;-70
2023/01/29 04:40:02;;;;;;;19.60;11.82;;;;;;;;;;5057880;28;20449;-70
2023/01/29 04:42:48;;;;;;;16.33;12.88;;;;;;;;;;5064459;28;20069;-70
2023/01/29 04:45:14;;;;;;;17.42;11.63;;;;;;;;;;5063158;28;20044;-69
2023/01/29 04:47:55;;;;;;;18.55;12.48;;;;;;;;;;5062109;28;20037;-70
2023/01/29 04:50:41;;;;;;;20.92;13.35;;;;;;;;;;5063779;28;20037;-70
2023/01/29 04:53:13;;;;;;;18.55;12.77;;;;;;;;;;5055522;28;20439;-70
2023/01/29 04:55:49;;;;;;;25.80;13.63;;;;;;;;;;5063062;28;20490;-70
2023/01/29 04:58:18;;;;;;;19.33;12.75;;;;;;;;;;5065675;28;20278;-71
2023/01/29 05:00:48;;;;;;;20.45;13.43;;;;;;;;;;5066728;28;20360;-70
2023/01/29 05:03:15;;;;;;;20.35;13.40;;;;;;;;;;5066977;28;20490;-70
2023/01/29 05:05:42;;;;;;;20.55;14.30;;;;;;;;;;5067249;28;20463;-70
2023/01/29 05:08:08;;;;;;;21.27;13.85;;;;;;;;;;5059717;28;20397;-70
2023/01/29 05:10:35;;;;;;;19.60;13.38;;;;;;;;;;5069082;28;20047;-70
2023/01/29 05:13:02;;;;;;;21.50;13.55;;;;;;;;;;5059497;28;20044;-70
2023/01/29 05:15:34;;;;;;;21.95;14.57;;;;;;;;;;5062350;28;20107;-70
2023/01/29 05:18:01;;;;;;;17.50;13.53;;;;;;;;;;5066302;28;20435;-70
2023/01/29 05:20:30;;;;;;;16.48;11.68;;;;;;;;;;5069337;28;20076;-70
2023/01/29 05:22:56;;;;;;;19.75;13.00;;;;;;;;;;5058428;28;20036;-70
2023/01/29 05:25:24;;;;;;;17.90;12.05;;;;;;;;;;5064008;28;20036;-70
2023/01/29 05:28:03;;;;;;;19.67;12.15;;;4.50;99.90;;;;;;5060767;28;20041;-70
2023/01/29 05:30:30;;;;;;;19.30;13.32;;;4.60;99.90;;;;;;5058699;28;20068;-70
2023/01/29 05:32:57;;;;;;;18.17;12.68;;;;;;;;;;5056834;28;20648;-70
2023/01/29 05:35:23;;;;;;;18.00;12.63;;;;;;;;;;5065399;28;20542;-70
2023/01/29 05:37:49;;;;;;;17.30;12.23;;;;;;;;;;5065289;28;20124;-70
2023/01/29 05:40:15;;;;;;;18.50;12.63;;;;;;;;;;5061994;28;20529;-70
2023/01/29 05:42:41;;;;;;;19.40;12.05;;;;;;;;;;5053050;28;20033;-70
2023/01/29 05:45:08;;;;;;;16.92;12.70;;;;;;;;;;5066380;28;20048;-70
2023/01/29 05:47:34;;;;;;;17.75;11.82;;;;;;;;;;5064344;28;20051;-70
2023/01/29 05:50:00;;;;;;;26.00;13.63;;;;;;;;;;5067600;28;20498;-70
2023/01/29 05:52:26;;;;;;;19.42;13.35;;;;;;;;;;5060955;28;20107;-70
2023/01/29 05:54:52;;;;;;;16.58;11.98;;;;;;;;;;5062618;28;20072;-70
2023/01/29 05:57:18;;;;;;;17.75;12.70;;;;;;;;;;5068700;28;20033;-70
2023/01/29 05:59:44;;;;;;;21.92;14.48;;;;;;;;;;5063087;28;20493;-70
2023/01/29 06:02:10;;;;;;;25.08;15.00;;;;;;;;;;5062261;28;20082;-70
2023/01/29 06:04:37;;;;;;;26.77;15.93;;;;;;;;;;5059946;28;20507;-70
2023/01/29 06:07:04;;;;;;;26.38;17.77;;;;;;;;;;5062888;28;20047;-70
2023/01/29 06:09:30;;;;;;;27.48;17.08;;;;;;;;;;5055787;28;20045;-70
2023/01/29 06:11:56;;;;;;;28.10;16.75;;;;;;;;;;5056025;28;20055;-70
2023/01/29 06:14:22;;;;;;;26.77;16.48;;;;;;;;;;5056759;28;20029;-70
2023/01/29 06:16:48;;;;;;;25.98;16.42;;;;;;;;;;5056944;28;20123;-69
2023/01/29 06:19:14;;;;;;;27.02;18.70;;;;;;;;;;5055880;28;20116;-70
2023/01/29 06:21:40;;;;;;;24.23;17.50;;;;;;;;;;5067744;28;20036;-70
2023/01/29 06:24:07;;;;;;;27.75;18.23;;;;;;;;;;5062124;28;20032;-70
2023/01/29 06:26:33;;;;;;;26.77;18.95;;;;;;;;;;5059859;28;20245;-70
2023/01/29 06:28:59;;;;;;;32.10;18.85;;;;;;;;;;5062234;28;20304;-70
2023/01/29 06:31:25;;;;;;;31.77;20.75;;;;;;;;;;5066113;28;20295;-70
2023/01/29 06:33:51;;;;;;;29.98;20.08;;;;;;;;;;5064504;28;20564;-70
2023/01/29 06:36:17;;;;;;;32.92;23.42;;;;;;;;;;5058456;28;20037;-70
2023/01/29 06:38:44;;;;;;;36.25;21.73;;;;;;;;;;5066427;28;20557;-70
2023/01/29 06:41:11;;;;;;;31.85;20.25;;;;;;;;;;5057364;28;20044;-70
2023/01/29 06:43:37;;;;;;;29.88;20.15;;;;;;;;;;5066065;28;20447;-70
2023/01/29 06:46:03;;;;;;;34.72;20.65;;;;;;;;;;5065590;28;20037;-69
2023/01/29 06:48:30;;;;;;;34.38;20.30;;;;;;;;;;5053145;28;20048;-70
2023/01/29 06:51:00;;;;;;;29.95;20.05;;;;;;;;;;5054870;28;20045;-71
2023/01/29 06:53:26;;;;;;;29.05;20.73;;;;;;;;;;5057115;28;20529;-70
2023/01/29 06:55:53;;;;;;;29.55;21.38;;;;;;;;;;5060280;28;20049;-70
2023/01/29 06:58:19;;;;;;;30.85;20.17;;;;;;;;;;5054190;28;20068;-70
2023/01/29 07:00:45;;;;;;;33.05;20.40;;;;;;;;;;5064532;28;20041;-70
2023/01/29 07:03:11;;;;;;;30.80;21.10;;;;;;;;;;5061468;28;20513;-70
2023/01/29 07:05:38;;;;;;;31.48;20.95;;;;;;;;;;5057079;28;20201;-69
2023/01/29 07:08:04;;;;;;;29.50;19.88;;;;;;;;;;5059406;28;20037;-70
2023/01/29 07:10:30;;;;;;;32.65;20.30;;;;;;;;;;5067067;28;20406;-69
2023/01/29 07:12:58;;;;;;;31.17;20.13;;;;;;;;;;5060947;28;20190;-70
2023/01/29 07:15:24;;;;;;;24.98;18.05;;;;;;;;;;5063087;28;20067;-70
2023/01/29 07:18:00;;;;;;;29.00;20.30;;;;;;;;;;5064106;28;20032;-69
2023/01/29 07:20:27;;;;;;;31.92;19.08;;;;;;;;;;5060327;28;20426;-70
2023/01/29 07:22:54;;;;;;;32.35;19.30;;;;;;;;;;5066275;28;20472;-70
2023/01/29 07:25:20;;;;;;;34.58;21.25;;;;;;;;;;5058637;28;20075;-70
2023/01/29 07:27:47;;;;;;;31.45;19.98;;;;;;;;;;5054525;28;20045;-70
2023/01/29 07:30:13;;;;;;;35.10;21.30;;;;;;;;;;5067640;28;20036;-70
2023/01/29 07:32:40;;;;;;;31.67;21.35;;;;;;;;;;5057950;28;20056;-70
2023/01/29 07:35:07;;;;;;;34.35;22.38;;;;;;;;;;5062242;28;20051;-70
2023/01/29 07:37:33;;;;;;;31.85;20.90;;;;;;;;;;5064262;28;20402;-70
2023/01/29 07:39:59;;;;;;;32.20;21.55;;;;;;;;;;5066430;28;20721;-70
2023/01/29 07:42:25;;;;;;;33.88;21.00;;;;;;;;;;5056486;28;20120;-71
2023/01/29 07:44:51;;;;;;;34.63;22.48;;;;;;;;;;5060358;28;20074;-70
2023/01/29 07:47:17;;;;;;;31.88;23.00;;;;;;;;;;5058483;28;20029;-70
2023/01/29 07:49:43;;;;;;;39.30;22.27;;;;;;;;;;5066265;28;20494;-70
2023/01/29 07:52:09;;;;;;;36.28;23.90;;;;;;;;;;5062660;28;20074;-70
2023/01/29 07:54:36;;;;;;;38.38;23.20;;;;;;;;;;5070616;28;20032;-70
2023/01/29 07:57:02;;;;;;;39.20;26.20;;;;;;;;;;5055709;28;20402;-69
2023/01/29 07:59:28;;;;;;;38.25;24.73;;;;;;;;;;5058132;28;20505;-70
2023/01/29 08:01:54;;;;;;;34.55;24.80;;;;;;;;;;5059836;28;20460;-70
2023/01/29 08:04:20;;;;;;;48.10;27.50;;;;;;;;;;5059647;28;20098;-70
2023/01/29 08:06:46;;;;;;;38.38;25.70;;;;;;;;;;5068171;28;20110;-70
2023/01/29 08:09:12;;;;;;;43.65;27.20;;;;;;;;;;5064988;28;20124;-70
2023/01/29 08:11:39;;;;;;;43.88;27.20;;;;;;;;;;5062919;28;20182;-70
2023/01/29 08:14:05;;;;;;;38.72;26.60;;;;;;;;;;5063223;28;20045;-70
2023/01/29 08:16:31;;;;;;;40.97;25.80;;;;;;;;;;5063412;28;20269;-70
2023/01/29 08:18:57;;;;;;;43.15;27.27;;;;;;;;;;5071771;28;20064;-70
2023/01/29 08:21:23;;;;;;;43.40;27.65;;;;;;;;;;5068523;28;20814;-70
2023/01/29 08:23:49;;;;;;;39.13;27.00;;;;;;;;;;5069404;28;20070;-70
2023/01/29 08:26:15;;;;;;;45.97;27.23;;;;;;;;;;5062803;28;20094;-70
2023/01/29 08:28:41;;;;;;;46.05;28.05;;;;;;;;;;5063747;28;20177;-70
2023/01/29 08:31:19;;;;;;;39.00;26.35;;;;;;;;;;5064045;28;20495;-70
2023/01/29 08:33:45;;;;;;;37.83;26.13;;;;;;;;;;5065219;28;20041;-70
2023/01/29 08:36:11;;;;;;;42.60;25.38;;;;;;;;;;5060427;28;20064;-70
2023/01/29 08:38:38;;;;;;;47.35;29.35;;;;;;;;;;5065199;28;20145;-70
2023/01/29 08:41:04;;;;;;;41.92;27.70;;;;;;;;;;5060220;28;20123;-70
2023/01/29 08:43:30;;;;;;;46.58;28.33;;;;;;;;;;5066971;28;20484;-70
2023/01/29 08:45:56;;;;;;;45.92;27.35;;;;;;;;;;5069377;28;20040;-70
2023/01/29 08:48:24;;;;;;;43.05;26.92;;;;;;;;;;5070601;28;20067;-69
2023/01/29 08:50:50;;;;;;;38.60;25.42;;;;;;;;;;5063918;28;20044;-70
2023/01/29 08:53:18;;;;;;;38.85;25.50;;;;;;;;;;5065006;28;20037;-70
2023/01/29 08:55:45;;;;;;;39.83;26.13;;;;;;;;;;5069434;28;20410;-70
2023/01/29 08:58:11;;;;;;;39.58;25.75;;;;;;;;;;5062892;28;20093;-70
2023/01/29 09:00:38;;;;;;;45.42;26.38;;;;;;;;;;5065086;28;20283;-70
2023/01/29 09:03:06;;;;;;;35.33;25.05;;;;;;;;;;5064616;28;20044;-70
2023/01/29 09:05:33;;;;;;;43.63;26.20;;;;;;;;;;5065367;28;20581;-70
2023/01/29 09:07:59;;;;;;;41.30;26.30;;;;;;;;;;5058787;28;20110;-70
2023/01/29 09:10:26;;;;;;;42.83;26.92;;;;;;;;;;5056058;28;20076;-70
2023/01/29 09:12:52;;;;;;;38.40;25.25;;;;;;;;;;5067618;28;20425;-69
2023/01/29 09:15:18;;;;;;;39.85;26.33;;;;;;;;;;5063741;28;20044;-70
2023/01/29 09:17:44;;;;;;;42.53;26.83;;;;;;;;;;5059533;28;20045;-70
2023/01/29 09:20:10;;;;;;;37.72;24.45;;;;;;;;;;5058028;28;20525;-70
2023/01/29 09:22:37;;;;;;;39.28;24.83;;;;;;;;;;5061226;28;20036;-70
2023/01/29 09:25:03;;;;;;;41.17;25.48;;;;;;;;;;5063147;28;20039;-70
2023/01/29 09:27:29;;;;;;;38.08;25.52;;;;;;;;;;5065598;28;20391;-69
2023/01/29 09:29:55;;;;;;;43.45;25.60;;;;;;;;;;5067304;28;20029;-70
2023/01/29 09:32:22;;;;;;;45.40;27.55;;;;;;;;;;5062460;28;20049;-70
2023/01/29 09:34:48;;;;;;;38.90;24.23;;;;;;;;;;5066080;28;20049;-70
2023/01/29 09:37:16;;;;;;;43.00;25.92;;;;;;;;;;5059198;28;20493;-70
2023/01/29 09:39:42;;;;;;;41.55;25.42;;;;;;;;;;5063235;28;20036;-70
2023/01/29 09:42:33;;;;;;;48.05;29.13;;;;;;;;;;5069160;28;20041;-69
2023/01/29 09:45:02;;;;;;;42.35;26.65;;;;;;;;;;5057924;28;20125;-70
2023/01/29 09:47:30;;;;;;;40.42;25.98;;;;;;;;;;5057989;28;20538;-70
2023/01/29 09:49:59;;;;;;;40.35;25.85;;;;;;;;;;5064277;28;20041;-70
2023/01/29 09:52:27;;;;;;;44.10;26.10;;;;;;;;;;5059208;28;20044;-70
2023/01/29 09:54:57;;;;;;;43.38;28.20;;;;;;;;;;5069692;28;20032;-70
2023/01/29 09:57:33;;;;;;;40.70;24.95;;;;;;;;;;5060304;28;20434;-70
2023/01/29 09:59:59;;;;;;;42.00;26.88;;;4.60;99.90;;;;;;5069345;28;20037;-70
2023/01/29 10:02:34;;;;;;;44.65;26.02;;;4.80;99.90;;;;;;5066997;28;20074;-70
2023/01/29 10:05:41;;;;;;;40.67;26.50;;;4.70;99.90;;;;;;5057319;28;20037;-70
2023/01/29 10:08:07;;;;;;;41.80;26.20;;;4.80;99.90;;;;;;5062757;28;20052;-69
2023/01/29 10:10:49;;;;;;;47.85;26.38;;;4.80;99.90;;;;;;5069048;28;20028;-70
2023/01/29 10:13:43;;;;;;;42.75;26.88;;;4.80;99.90;;;;;;5057637;28;20506;-71
2023/01/29 10:16:47;;;;;;;44.88;26.35;;;4.80;99.90;;;;;;5066585;28;20406;-69
2023/01/29 10:19:16;;;;;;;38.55;23.60;;;4.80;99.90;;;;;;5031523;28;20045;-70
2023/01/29 10:22:09;;;;;;;42.65;26.08;;;4.80;99.90;;;;;;5066543;28;20040;-70
2023/01/29 10:24:35;;;;;;;41.35;26.08;;;4.80;99.90;;;;;;5068049;28;20075;-70
2023/01/29 10:27:02;;;;;;;49.33;27.33;;;4.70;99.90;;;;;;5060359;28;20068;-70
2023/01/29 10:29:30;;;;;;;42.20;26.80;;;4.80;99.90;;;;;;5058696;28;20368;-70
2023/01/29 10:32:03;;;;;;;36.88;25.33;;;4.80;99.90;;;;;;5062868;28;20044;-70
2023/01/29 10:34:48;;;;;;;40.53;25.85;;;4.80;99.90;;;;;;5058343;28;20284;-70
2023/01/29 10:37:23;;;;;;;41.30;25.67;;;4.80;99.90;;;;;;5061297;28;20059;-70
2023/01/29 10:39:49;;;;;;;34.42;21.05;;;4.80;99.90;;;;;;5064308;28;20039;-70
2023/01/29 10:42:44;;;;;;;37.85;24.17;;;4.80;99.90;;;;;;5074310;28;20497;-70
2023/01/29 10:45:15;;;;;;;38.92;24.52;;;4.90;99.90;;;;;;5062375;28;20210;-70
2023/01/29 10:47:59;;;;;;;37.88;24.75;;;4.90;99.90;;;;;;5055815;28;20040;-70
2023/01/29 10:50:39;;;;;;;;;;;4.90;99.90;;;;;;5066455;28;20478;-70
2023/01/29 10:53:20;;;;;;;37.17;25.35;;;4.90;99.90;;;;;;5059407;28;20005;-70
2023/01/29 10:56:23;;;;;;;39.97;23.42;;;4.90;99.90;;;;;;5057750;28;20438;-70
2023/01/29 10:59:28;;;;;;;42.25;25.48;;;4.90;99.90;;;;;;5061894;28;20507;-70
2023/01/29 11:01:59;;;;;;;40.10;22.90;;;4.90;99.90;;;;;;5064011;28;20090;-70
2023/01/29 11:04:27;;;;;;;39.53;23.50;;;5.00;99.90;;;;;;5063583;28;20294;-70
2023/01/29 11:06:53;;;;;;;32.38;21.35;;;5.00;99.90;;;;;;5065144;28;20206;-70
2023/01/29 11:09:36;;;;;;;31.88;19.83;;;5.00;99.90;;;;;;5066192;28;20029;-70
2023/01/29 11:12:03;;;;;;;;;;;5.00;99.90;;;;;;5061516;28;20127;-70
2023/01/29 11:14:42;;;;;;;31.80;18.92;;;5.00;99.90;;;;;;5070507;28;19923;-69
2023/01/29 11:17:15;;;;;;;29.67;18.45;;;5.00;99.90;;;;;;5059235;28;20597;-70
2023/01/29 11:19:44;;;;;;;30.27;16.85;;;5.10;99.90;;;;;;5060925;28;20032;-69
2023/01/29 11:22:27;;;;;;;35.38;17.88;;;5.10;99.90;;;;;;5071993;28;20040;-70
2023/01/29 11:25:08;;;;;;;31.30;17.92;;;5.10;99.90;;;;;;5070940;28;20123;-70
2023/01/29 11:28:01;;;;;;;31.92;18.17;;;5.10;99.90;;;;;;5056533;28;20036;-70
2023/01/29 11:30:30;;;;;;;32.95;19.67;;;5.20;99.90;;;;;;5065818;28;20482;-70
2023/01/29 11:33:11;;;;;;;28.88;19.33;;;5.20;99.90;;;;;;5063938;28;20048;-70
2023/01/29 11:35:37;;;;;;;31.60;19.23;;;5.20;99.90;;;;;;5062535;28;20052;-70
2023/01/29 11:38:27;;;;;;;30.83;18.95;;;5.20;99.90;;;;;;5054239;28;20121;-70
2023/01/29 11:41:05;;;;;;;30.80;19.13;;;5.20;99.90;;;;;;5050085;28;20080;-70
2023/01/29 11:43:32;;;;;;;30.83;19.88;;;5.20;99.90;;;;;;5067917;28;20397;-70
2023/01/29 11:46:11;;;;;;;34.20;21.42;;;5.20;99.90;;;;;;5066234;28;20036;-70
2023/01/29 11:48:50;;;;;;;37.33;19.73;;;5.30;99.90;;;;;;5056888;28;20040;-70
2023/01/29 11:51:21;;;;;;;32.72;20.52;;;;;;;;;;5063220;28;20068;-70
2023/01/29 11:53:53;;;;;;;33.85;20.75;;;;;;;;;;5071480;28;20124;-70
2023/01/29 11:56:25;;;;;;;30.65;20.08;;;;;;;;;;5069986;28;20136;-71
2023/01/29 11:58:54;;;;;;;29.88;19.13;;;;;;;;;;5064942;28;20297;-71
2023/01/29 12:01:30;;;;;;;26.90;19.23;;;;;;;;;;5070304;28;20179;-70
2023/01/29 12:03:56;;;;;;;31.60;19.23;;;5.20;99.90;;;;;;5064816;28;20040;-70
2023/01/29 12:06:31;;;;;;;30.92;19.20;;;;;;;;;;5066956;28;20494;-70
2023/01/29 12:08:59;;;;;;;31.27;19.50;;;;;;;;;;5067646;28;20390;-70
2023/01/29 12:11:43;;;;;;;29.75;18.90;;;;;;;;;;5065380;28;20274;-70
2023/01/29 12:14:37;;;;;;;26.23;17.60;;;;;;;;;;5058146;28;20569;-70
2023/01/29 12:17:22;;;;;;;28.80;18.50;;;;;;;;;;5063186;28;20053;-70
2023/01/29 12:19:58;;;;;;;29.17;19.17;;;;;;;;;;5072378;28;20119;-70
2023/01/29 12:22:38;;;;;;;32.97;21.27;;;;;;;;;;5063933;28;20047;-70
2023/01/29 12:25:16;;;;;;;32.95;21.63;;;;;;;;;;5062668;28;20040;-70
2023/01/29 12:28:02;;;;;;;37.95;24.92;;;;;;;;;;5058886;28;20029;-70
2023/01/29 12:30:31;;;;;;;39.05;24.05;;;;;;;;;;5043447;28;20043;-71
2023/01/29 12:32:57;;;;;;;32.03;22.60;;;;;;;;;;5063560;28;20052;-70
2023/01/29 12:35:30;;;;;;;36.08;22.25;;;;;;;;;;5064240;28;20059;-69
2023/01/29 12:38:15;;;;;;;32.20;22.42;;;;;;;;;;5063057;28;20036;-70
2023/01/29 12:40:43;;;;;;;35.63;23.30;;;;;;;;;;5064091;28;20093;-70
2023/01/29 12:43:16;;;;;;;33.30;20.55;;;;;;;;;;5062207;28;20041;-70
2023/01/29 12:45:44;;;;;;;29.00;21.60;;;;;;;;;;5058575;28;20051;-70
2023/01/29 12:48:13;;;;;;;34.08;22.95;;;;;;;;;;5060461;28;20089;-70
2023/01/29 12:50:40;;;;;;;33.00;22.70;;;;;;;;;;5065998;28;20402;-70
2023/01/29 12:53:17;;;;;;;40.45;23.35;;;;;;;;;;5065303;28;20456;-70
2023/01/29 12:55:46;;;;;;;39.38;25.63;;;;;;;;;;5065667;28;20533;-70
2023/01/29 12:58:15;;;;;;;37.40;25.05;;;;;;;;;;5064948;28;20072;-69
2023/01/29 13:00:46;;;;;;;38.63;27.50;;;;;;;;;;5058309;28;20036;-70
2023/01/29 13:03:31;;;;;;;42.65;26.17;;;;;;;;;;5059629;28;20103;-70
2023/01/29 13:06:00;;;;;;;38.45;27.05;;;;;;;;;;5070227;28;20512;-70
2023/01/29 13:08:29;;;;;;;39.90;26.85;;;;;;;;;;5066548;28;20045;-69
2023/01/29 13:10:58;;;;;;;43.03;28.45;;;;;;;;;;5066679;28;20044;-70
2023/01/29 13:13:30;;;;;;;43.38;26.58;;;;;;;;;;5066243;28;20037;-70
2023/01/29 13:15:58;;;;;;;38.00;24.52;;;;;;;;;;5067505;28;20502;-70
2023/01/29 13:18:45;;;;;;;36.20;23.27;;;;;;;;;;5069984;28;20044;-70
2023/01/29 13:21:13;;;;;;;30.95;20.63;;;;;;;;;;5063978;28;20418;-70
2023/01/29 13:23:42;;;;;;;33.00;20.30;;;;;;;;;;5068022;28;20032;-70
2023/01/29 13:26:09;;;;;;;32.78;23.83;;;;;;;;;;5061882;28;20045;-70
2023/01/29 13:28:35;;;;;;;35.35;22.80;;;;;;;;;;5071939;28;20036;-70
2023/01/29 13:31:19;;;;;;;35.30;23.63;;;;;;;;;;5072112;28;20446;-69
2023/01/29 13:33:52;;;;;;;32.03;21.92;;;;;;;;;;5068077;28;20051;-70
2023/01/29 13:36:22;;;;;;;41.38;27.40;;;;;;;;;;5060721;28;20037;-70
2023/01/29 13:38:53;;;;;;;33.92;23.00;;;;;;;;;;5062432;28;20131;-70
2023/01/29 13:41:20;;;;;;;37.03;24.33;;;;;;;;;;5065878;28;20182;-70
2023/01/29 13:43:49;;;;;;;36.53;24.77;;;;;;;;;;5073806;28;20115;-70
2023/01/29 13:46:20;;;;;;;37.80;26.05;;;;;;;;;;5065962;28;20032;-70
2023/01/29 13:48:48;;;;;;;39.05;26.80;;;;;;;;;;5058716;28;20048;-70
2023/01/29 13:51:18;;;;;;;29.08;22.55;;;;;;;;;;5077230;28;20386;-70
2023/01/29 13:54:11;;;;;;;36.70;24.35;;;;;;;;;;5073074;28;20465;-71
2023/01/29 13:56:42;;;;;;;29.40;22.17;;;;;;;;;;5064515;28;20517;-71
2023/01/29 13:59:21;;;;;;;33.17;24.15;;;;;;;;;;5073362;28;20036;-70
2023/01/29 14:01:47;;;;;;;38.25;24.08;;;;;;;;;;5069668;28;20120;-70
2023/01/29 14:04:24;;;;;;;34.50;23.92;;;;;;;;;;5064517;28;20036;-70
2023/01/29 14:06:57;;;;;;;36.60;24.85;;;;;;;;;;5068813;28;20039;-70
2023/01/29 14:09:23;;;;;;;;;;;;;;;;;;5067587;28;20040;-70
2023/01/29 14:11:49;;;;;;;35.80;25.23;;;;;;;;;;5063738;28;19923;-70
2023/01/29 14:14:34;;;;;;;45.65;27.13;;;;;;;;;;5056061;28;20107;-70
2023/01/29 14:17:01;;;;;;;44.30;27.73;;;;;;;;;;5065018;28;20451;-70
2023/01/29 14:19:27;;;;;;;41.45;26.95;;;;;;;;;;5073651;28;20067;-69
2023/01/29 14:21:54;;;;;;;37.63;26.75;;;;;;;;;;5069077;28;20499;-69
2023/01/29 14:24:28;;;;;;;41.20;27.60;;;;;;;;;;5061681;28;20093;-70
2023/01/29 14:26:54;;;;;;;45.78;28.60;;;;;;;;;;5077638;28;20037;-70
2023/01/29 14:29:25;;;;;;;47.13;28.33;;;;;;;;;;5063222;28;20040;-70
2023/01/29 14:31:53;;;;;;;35.47;25.27;;;;;;;;;;5064098;28;20144;-70
2023/01/29 14:34:27;;;;;;;43.08;30.15;;;;;;;;;;5064280;28;20060;-70
2023/01/29 14:37:01;;;;;;;45.92;30.00;;;5.30;99.90;;;;;;5069746;28;20032;-69
2023/01/29 14:39:43;;;;;;;42.97;28.15;;;4.80;99.90;;;;;;5063255;28;20037;-70
2023/01/29 14:42:33;;;;;;;42.42;28.42;;;4.70;99.90;;;;;;5071066;28;20036;-69
2023/01/29 14:44:59;;;;;;;44.25;28.35;;;;;;;;;;5065120;28;20453;-70
2023/01/29 14:47:25;;;;;;;40.78;27.95;;;;;;;;;;5075393;28;20036;-70
2023/01/29 14:49:53;;;;;;;39.22;27.67;;;;;;;;;;5070637;28;20502;-69